sensor_id;sensor_type;location;lat;lon;timestamp;P1;durP1;ratioP1;P2;durP2;ratioP2
12145;SDS011;6136;47.032;15.398;2023-05-03T00:00:04;5.33;;;1.60;;
12145;SDS011;6136;47.032;15.398;2023-05-03T00:02:36;1.80;;;1.70;;
12145;SDS011;6136;47.032;15.398;2023-05-03T00:05:06;1.80;;;1.70;;
12145;SDS011;6136;47.032;15.398;2023-05-03T00:07:40;1.50;;;1.40;;
12145;SDS011;6136;47.032;15.398;2023-05-03T00:10:10;1.83;;;1.67;;
12145;SDS011;6136;47.032;15.398;2023-05-03T00:12:41;1.90;;;1.80;;
12145;SDS011;6136;47.032;15.398;2023-05-03T00:15:10;4.13;;;1.63;;
12145;SDS011;6136;47.032;15.398;2023-05-03T00:17:40;4.03;;;1.50;;
12145;SDS011;6136;47.032;15.398;2023-05-03T00:20:08;2.53;;;1.37;;
12145;SDS011;6136;47.032;15.398;2023-05-03T00:22:37;2.93;;;1.67;;
12145;SDS011;6136;47.032;15.398;2023-05-03T00:25:06;3.23;;;1.83;;
12145;SDS011;6136;47.032;15.398;2023-05-03T00:27:35;1.80;;;1.70;;
12145;SDS011;6136;47.032;15.398;2023-05-03T00:30:04;1.70;;;1.60;;
12145;SDS011;6136;47.032;15.398;2023-05-03T00:32:33;2.20;;;1.70;;
12145;SDS011;6136;47.032;15.398;2023-05-03T00:35:03;4.20;;;1.77;;
12145;SDS011;6136;47.032;15.398;2023-05-03T00:37:32;2.37;;;2.17;;
12145;SDS011;6136;47.032;15.398;2023-05-03T00:40:00;1.70;;;1.60;;
12145;SDS011;6136;47.032;15.398;2023-05-03T00:42:28;1.70;;;1.60;;
12145;SDS011;6136;47.032;15.398;2023-05-03T00:44:56;2.13;;;1.90;;
12145;SDS011;6136;47.032;15.398;2023-05-03T00:47:25;3.93;;;1.93;;
12145;SDS011;6136;47.032;15.398;2023-05-03T00:49:53;1.90;;;1.70;;
12145;SDS011;6136;47.032;15.398;2023-05-03T00:52:23;2.07;;;1.73;;
12145;SDS011;6136;47.032;15.398;2023-05-03T00:54:52;6.07;;;1.67;;
12145;SDS011;6136;47.032;15.398;2023-05-03T00:57:20;1.73;;;1.60;;
12145;SDS011;6136;47.032;15.398;2023-05-03T00:59:50;1.70;;;1.60;;
12145;SDS011;6136;47.032;15.398;2023-05-03T01:02:19;1.80;;;1.57;;
12145;SDS011;6136;47.032;15.398;2023-05-03T01:04:48;1.83;;;1.73;;
12145;SDS011;6136;47.032;15.398;2023-05-03T01:07:17;3.20;;;1.90;;
12145;SDS011;6136;47.032;15.398;2023-05-03T01:09:59;2.57;;;2.00;;
12145;SDS011;6136;47.032;15.398;2023-05-03T01:12:33;1.70;;;1.60;;
12145;SDS011;6136;47.032;15.398;2023-05-03T01:15:14;1.87;;;1.70;;
12145;SDS011;6136;47.032;15.398;2023-05-03T01:17:49;1.70;;;1.60;;
12145;SDS011;6136;47.032;15.398;2023-05-03T01:20:21;2.30;;;1.90;;
12145;SDS011;6136;47.032;15.398;2023-05-03T01:23:08;1.90;;;1.80;;
12145;SDS011;6136;47.032;15.398;2023-05-03T01:25:42;1.97;;;1.70;;
12145;SDS011;6136;47.032;15.398;2023-05-03T01:28:10;2.03;;;1.83;;
12145;SDS011;6136;47.032;15.398;2023-05-03T01:30:38;2.63;;;1.70;;
12145;SDS011;6136;47.032;15.398;2023-05-03T01:33:09;2.27;;;2.07;;
12145;SDS011;6136;47.032;15.398;2023-05-03T01:35:41;3.83;;;2.00;;
12145;SDS011;6136;47.032;15.398;2023-05-03T01:38:13;2.00;;;1.83;;
12145;SDS011;6136;47.032;15.398;2023-05-03T01:40:45;2.00;;;1.90;;
12145;SDS011;6136;47.032;15.398;2023-05-03T01:43:17;2.13;;;1.93;;
12145;SDS011;6136;47.032;15.398;2023-05-03T01:45:46;1.80;;;1.70;;
12145;SDS011;6136;47.032;15.398;2023-05-03T01:48:16;1.97;;;1.87;;
12145;SDS011;6136;47.032;15.398;2023-05-03T01:50:45;1.87;;;1.77;;
12145;SDS011;6136;47.032;15.398;2023-05-03T01:53:13;2.03;;;1.87;;
12145;SDS011;6136;47.032;15.398;2023-05-03T01:55:41;1.83;;;1.73;;
12145;SDS011;6136;47.032;15.398;2023-05-03T01:58:11;1.77;;;1.67;;
12145;SDS011;6136;47.032;15.398;2023-05-03T02:00:39;2.00;;;1.80;;
12145;SDS011;6136;47.032;15.398;2023-05-03T02:03:08;2.50;;;1.70;;
12145;SDS011;6136;47.032;15.398;2023-05-03T02:05:37;1.40;;;1.27;;
12145;SDS011;6136;47.032;15.398;2023-05-03T02:08:05;2.50;;;1.70;;
12145;SDS011;6136;47.032;15.398;2023-05-03T02:10:33;1.53;;;1.43;;
12145;SDS011;6136;47.032;15.398;2023-05-03T02:13:01;1.63;;;1.50;;
12145;SDS011;6136;47.032;15.398;2023-05-03T02:15:31;1.33;;;1.23;;
12145;SDS011;6136;47.032;15.398;2023-05-03T02:17:59;1.00;;;1.00;;
12145;SDS011;6136;47.032;15.398;2023-05-03T02:20:29;1.20;;;1.13;;
12145;SDS011;6136;47.032;15.398;2023-05-03T02:23:02;1.47;;;1.17;;
12145;SDS011;6136;47.032;15.398;2023-05-03T02:25:30;1.47;;;1.37;;
12145;SDS011;6136;47.032;15.398;2023-05-03T02:27:58;1.27;;;1.20;;
12145;SDS011;6136;47.032;15.398;2023-05-03T02:30:27;1.50;;;1.40;;
12145;SDS011;6136;47.032;15.398;2023-05-03T02:32:56;1.40;;;1.30;;
12145;SDS011;6136;47.032;15.398;2023-05-03T02:35:25;1.20;;;1.10;;
12145;SDS011;6136;47.032;15.398;2023-05-03T02:37:53;1.67;;;1.20;;
12145;SDS011;6136;47.032;15.398;2023-05-03T02:40:22;0.90;;;0.90;;
12145;SDS011;6136;47.032;15.398;2023-05-03T02:42:51;2.30;;;1.33;;
12145;SDS011;6136;47.032;15.398;2023-05-03T02:45:24;1.07;;;1.00;;
12145;SDS011;6136;47.032;15.398;2023-05-03T02:47:53;1.40;;;1.13;;
12145;SDS011;6136;47.032;15.398;2023-05-03T02:50:24;1.37;;;1.27;;
12145;SDS011;6136;47.032;15.398;2023-05-03T02:52:53;1.57;;;1.30;;
12145;SDS011;6136;47.032;15.398;2023-05-03T02:55:21;1.20;;;1.10;;
12145;SDS011;6136;47.032;15.398;2023-05-03T02:57:49;1.13;;;1.13;;
12145;SDS011;6136;47.032;15.398;2023-05-03T03:00:18;1.20;;;1.20;;
12145;SDS011;6136;47.032;15.398;2023-05-03T03:02:47;1.07;;;1.07;;
12145;SDS011;6136;47.032;15.398;2023-05-03T03:05:15;1.20;;;1.20;;
12145;SDS011;6136;47.032;15.398;2023-05-03T03:07:48;1.23;;;1.13;;
12145;SDS011;6136;47.032;15.398;2023-05-03T03:10:17;1.33;;;1.23;;
12145;SDS011;6136;47.032;15.398;2023-05-03T03:12:47;1.20;;;1.10;;
12145;SDS011;6136;47.032;15.398;2023-05-03T03:15:23;1.33;;;1.23;;
12145;SDS011;6136;47.032;15.398;2023-05-03T03:17:51;1.30;;;1.20;;
12145;SDS011;6136;47.032;15.398;2023-05-03T03:20:24;1.30;;;1.20;;
12145;SDS011;6136;47.032;15.398;2023-05-03T03:22:53;1.43;;;1.33;;
12145;SDS011;6136;47.032;15.398;2023-05-03T03:25:22;1.40;;;1.30;;
12145;SDS011;6136;47.032;15.398;2023-05-03T03:27:51;1.20;;;1.10;;
12145;SDS011;6136;47.032;15.398;2023-05-03T03:30:19;1.47;;;1.37;;
12145;SDS011;6136;47.032;15.398;2023-05-03T03:33:07;1.37;;;1.27;;
12145;SDS011;6136;47.032;15.398;2023-05-03T03:35:39;1.50;;;1.40;;
12145;SDS011;6136;47.032;15.398;2023-05-03T03:38:11;2.07;;;1.37;;
12145;SDS011;6136;47.032;15.398;2023-05-03T03:40:47;2.20;;;1.67;;
12145;SDS011;6136;47.032;15.398;2023-05-03T03:43:15;1.50;;;1.37;;
12145;SDS011;6136;47.032;15.398;2023-05-03T03:45:44;1.40;;;1.30;;
12145;SDS011;6136;47.032;15.398;2023-05-03T03:48:13;1.30;;;1.20;;
12145;SDS011;6136;47.032;15.398;2023-05-03T03:50:42;1.57;;;1.47;;
12145;SDS011;6136;47.032;15.398;2023-05-03T03:53:13;1.40;;;1.30;;
12145;SDS011;6136;47.032;15.398;2023-05-03T03:55:42;2.83;;;1.40;;
12145;SDS011;6136;47.032;15.398;2023-05-03T03:58:11;1.67;;;1.43;;
12145;SDS011;6136;47.032;15.398;2023-05-03T04:00:39;1.33;;;1.27;;
12145;SDS011;6136;47.032;15.398;2023-05-03T04:03:14;1.20;;;1.10;;
12145;SDS011;6136;47.032;15.398;2023-05-03T04:05:43;1.50;;;1.40;;
12145;SDS011;6136;47.032;15.398;2023-05-03T04:08:14;1.07;;;1.00;;
12145;SDS011;6136;47.032;15.398;2023-05-03T04:10:42;1.10;;;1.10;;
12145;SDS011;6136;47.032;15.398;2023-05-03T04:13:11;1.87;;;1.37;;
12145;SDS011;6136;47.032;15.398;2023-05-03T04:15:39;1.23;;;1.17;;
12145;SDS011;6136;47.032;15.398;2023-05-03T04:18:07;1.80;;;1.70;;
12145;SDS011;6136;47.032;15.398;2023-05-03T04:20:38;1.57;;;1.47;;
12145;SDS011;6136;47.032;15.398;2023-05-03T04:23:07;2.20;;;1.40;;
12145;SDS011;6136;47.032;15.398;2023-05-03T04:25:37;1.33;;;1.23;;
12145;SDS011;6136;47.032;15.398;2023-05-03T04:28:13;6.33;;;1.67;;
12145;SDS011;6136;47.032;15.398;2023-05-03T04:30:45;1.50;;;1.40;;
12145;SDS011;6136;47.032;15.398;2023-05-03T04:33:19;1.63;;;1.53;;
12145;SDS011;6136;47.032;15.398;2023-05-03T04:35:50;1.83;;;1.70;;
12145;SDS011;6136;47.032;15.398;2023-05-03T04:38:18;1.60;;;1.50;;
12145;SDS011;6136;47.032;15.398;2023-05-03T04:40:49;1.73;;;1.63;;
12145;SDS011;6136;47.032;15.398;2023-05-03T04:43:18;1.53;;;1.43;;
12145;SDS011;6136;47.032;15.398;2023-05-03T04:45:47;1.60;;;1.47;;
12145;SDS011;6136;47.032;15.398;2023-05-03T04:48:19;1.80;;;1.70;;
12145;SDS011;6136;47.032;15.398;2023-05-03T04:50:48;1.60;;;1.50;;
12145;SDS011;6136;47.032;15.398;2023-05-03T04:53:19;1.60;;;1.50;;
12145;SDS011;6136;47.032;15.398;2023-05-03T04:55:58;1.60;;;1.50;;
12145;SDS011;6136;47.032;15.398;2023-05-03T04:58:29;2.93;;;2.10;;
12145;SDS011;6136;47.032;15.398;2023-05-03T05:00:57;2.87;;;2.13;;
12145;SDS011;6136;47.032;15.398;2023-05-03T05:03:28;1.93;;;1.80;;
12145;SDS011;6136;47.032;15.398;2023-05-03T05:06:01;3.10;;;1.93;;
12145;SDS011;6136;47.032;15.398;2023-05-03T05:08:31;2.10;;;1.90;;
12145;SDS011;6136;47.032;15.398;2023-05-03T05:11:01;2.63;;;2.03;;
12145;SDS011;6136;47.032;15.398;2023-05-03T05:13:30;1.90;;;1.80;;
12145;SDS011;6136;47.032;15.398;2023-05-03T05:16:00;2.03;;;1.93;;
12145;SDS011;6136;47.032;15.398;2023-05-03T05:18:28;2.00;;;1.80;;
12145;SDS011;6136;47.032;15.398;2023-05-03T05:21:00;2.07;;;1.67;;
12145;SDS011;6136;47.032;15.398;2023-05-03T05:23:31;3.10;;;1.87;;
12145;SDS011;6136;47.032;15.398;2023-05-03T05:25:59;1.90;;;1.80;;
12145;SDS011;6136;47.032;15.398;2023-05-03T05:28:31;2.40;;;1.93;;
12145;SDS011;6136;47.032;15.398;2023-05-03T05:31:00;2.13;;;1.80;;
12145;SDS011;6136;47.032;15.398;2023-05-03T05:33:29;2.87;;;1.83;;
12145;SDS011;6136;47.032;15.398;2023-05-03T05:35:58;2.20;;;2.00;;
12145;SDS011;6136;47.032;15.398;2023-05-03T05:38:26;4.03;;;2.10;;
12145;SDS011;6136;47.032;15.398;2023-05-03T05:40:56;3.53;;;2.00;;
12145;SDS011;6136;47.032;15.398;2023-05-03T05:43:25;1.87;;;1.77;;
12145;SDS011;6136;47.032;15.398;2023-05-03T05:45:55;2.30;;;2.10;;
12145;SDS011;6136;47.032;15.398;2023-05-03T05:48:23;2.37;;;2.17;;
12145;SDS011;6136;47.032;15.398;2023-05-03T05:50:52;3.73;;;1.80;;
12145;SDS011;6136;47.032;15.398;2023-05-03T05:53:20;1.87;;;1.77;;
12145;SDS011;6136;47.032;15.398;2023-05-03T05:55:55;1.80;;;1.70;;
12145;SDS011;6136;47.032;15.398;2023-05-03T05:58:25;1.90;;;1.70;;
12145;SDS011;6136;47.032;15.398;2023-05-03T06:00:58;1.90;;;1.80;;
12145;SDS011;6136;47.032;15.398;2023-05-03T06:03:28;2.20;;;2.00;;
12145;SDS011;6136;47.032;15.398;2023-05-03T06:06:00;2.10;;;1.90;;
12145;SDS011;6136;47.032;15.398;2023-05-03T06:08:28;2.77;;;2.20;;
12145;SDS011;6136;47.032;15.398;2023-05-03T06:10:56;2.27;;;2.07;;
12145;SDS011;6136;47.032;15.398;2023-05-03T06:13:26;2.23;;;2.00;;
12145;SDS011;6136;47.032;15.398;2023-05-03T06:15:57;2.20;;;2.00;;
12145;SDS011;6136;47.032;15.398;2023-05-03T06:18:27;2.40;;;2.00;;
12145;SDS011;6136;47.032;15.398;2023-05-03T06:20:55;2.10;;;1.90;;
12145;SDS011;6136;47.032;15.398;2023-05-03T06:23:24;2.27;;;2.07;;
12145;SDS011;6136;47.032;15.398;2023-05-03T06:25:54;2.00;;;1.90;;
12145;SDS011;6136;47.032;15.398;2023-05-03T06:28:23;2.07;;;1.97;;
12145;SDS011;6136;47.032;15.398;2023-05-03T06:30:53;2.10;;;1.90;;
12145;SDS011;6136;47.032;15.398;2023-05-03T06:33:23;3.17;;;2.60;;
12145;SDS011;6136;47.032;15.398;2023-05-03T06:35:53;2.60;;;2.40;;
12145;SDS011;6136;47.032;15.398;2023-05-03T06:38:22;3.97;;;2.17;;
12145;SDS011;6136;47.032;15.398;2023-05-03T06:40:50;5.07;;;2.27;;
12145;SDS011;6136;47.032;15.398;2023-05-03T06:43:18;3.27;;;2.30;;
12145;SDS011;6136;47.032;15.398;2023-05-03T06:46:08;2.73;;;2.17;;
12145;SDS011;6136;47.032;15.398;2023-05-03T06:48:39;2.57;;;2.37;;
12145;SDS011;6136;47.032;15.398;2023-05-03T06:51:07;4.00;;;2.57;;
12145;SDS011;6136;47.032;15.398;2023-05-03T06:53:35;2.90;;;2.37;;
12145;SDS011;6136;47.032;15.398;2023-05-03T06:56:04;3.17;;;2.50;;
12145;SDS011;6136;47.032;15.398;2023-05-03T06:58:32;3.27;;;2.40;;
12145;SDS011;6136;47.032;15.398;2023-05-03T07:01:00;2.93;;;2.37;;
12145;SDS011;6136;47.032;15.398;2023-05-03T07:03:29;2.33;;;2.17;;
12145;SDS011;6136;47.032;15.398;2023-05-03T07:05:59;3.70;;;2.20;;
12145;SDS011;6136;47.032;15.398;2023-05-03T07:08:27;2.67;;;2.23;;
12145;SDS011;6136;47.032;15.398;2023-05-03T07:10:56;3.97;;;2.60;;
12145;SDS011;6136;47.032;15.398;2023-05-03T07:13:24;2.50;;;2.30;;
12145;SDS011;6136;47.032;15.398;2023-05-03T07:15:52;3.33;;;2.93;;
12145;SDS011;6136;47.032;15.398;2023-05-03T07:18:20;2.90;;;2.70;;
12145;SDS011;6136;47.032;15.398;2023-05-03T07:20:48;3.30;;;3.00;;
12145;SDS011;6136;47.032;15.398;2023-05-03T07:23:18;3.30;;;2.83;;
12145;SDS011;6136;47.032;15.398;2023-05-03T07:25:46;3.30;;;3.00;;
12145;SDS011;6136;47.032;15.398;2023-05-03T07:28:15;4.57;;;2.60;;
12145;SDS011;6136;47.032;15.398;2023-05-03T07:30:43;4.33;;;3.63;;
12145;SDS011;6136;47.032;15.398;2023-05-03T07:33:12;2.93;;;2.73;;
12145;SDS011;6136;47.032;15.398;2023-05-03T07:35:40;3.28;;;2.75;;
12145;SDS011;6136;47.032;15.398;2023-05-03T07:38:09;3.30;;;2.87;;
12145;SDS011;6136;47.032;15.398;2023-05-03T07:40:38;3.10;;;2.80;;
12145;SDS011;6136;47.032;15.398;2023-05-03T07:43:07;3.03;;;2.60;;
12145;SDS011;6136;47.032;15.398;2023-05-03T07:45:36;7.20;;;3.00;;
12145;SDS011;6136;47.032;15.398;2023-05-03T07:48:04;6.20;;;3.17;;
12145;SDS011;6136;47.032;15.398;2023-05-03T07:50:33;3.20;;;2.90;;
12145;SDS011;6136;47.032;15.398;2023-05-03T07:53:01;4.63;;;3.03;;
12145;SDS011;6136;47.032;15.398;2023-05-03T07:55:29;3.53;;;3.23;;
12145;SDS011;6136;47.032;15.398;2023-05-03T07:58:00;4.07;;;2.97;;
12145;SDS011;6136;47.032;15.398;2023-05-03T08:00:29;2.97;;;2.77;;
12145;SDS011;6136;47.032;15.398;2023-05-03T08:02:57;3.35;;;3.05;;
12145;SDS011;6136;47.032;15.398;2023-05-03T08:05:28;3.23;;;2.80;;
12145;SDS011;6136;47.032;15.398;2023-05-03T08:07:56;3.95;;;3.17;;
12145;SDS011;6136;47.032;15.398;2023-05-03T08:10:24;4.88;;;2.55;;
12145;SDS011;6136;47.032;15.398;2023-05-03T08:12:52;3.65;;;3.10;;
12145;SDS011;6136;47.032;15.398;2023-05-03T08:15:22;3.25;;;2.95;;
12145;SDS011;6136;47.032;15.398;2023-05-03T08:17:50;2.92;;;2.67;;
12145;SDS011;6136;47.032;15.398;2023-05-03T08:20:18;4.63;;;3.05;;
12145;SDS011;6136;47.032;15.398;2023-05-03T08:22:49;3.70;;;3.30;;
12145;SDS011;6136;47.032;15.398;2023-05-03T08:25:25;3.65;;;2.88;;
12145;SDS011;6136;47.032;15.398;2023-05-03T08:27:54;3.92;;;3.00;;
12145;SDS011;6136;47.032;15.398;2023-05-03T08:30:24;3.58;;;3.10;;
12145;SDS011;6136;47.032;15.398;2023-05-03T08:32:52;3.33;;;3.03;;
12145;SDS011;6136;47.032;15.398;2023-05-03T08:35:21;3.08;;;2.78;;
12145;SDS011;6136;47.032;15.398;2023-05-03T08:37:49;2.78;;;2.50;;
12145;SDS011;6136;47.032;15.398;2023-05-03T08:40:19;3.30;;;3.00;;
12145;SDS011;6136;47.032;15.398;2023-05-03T08:42:48;3.30;;;3.00;;
12145;SDS011;6136;47.032;15.398;2023-05-03T08:45:17;4.82;;;2.85;;
12145;SDS011;6136;47.032;15.398;2023-05-03T08:47:51;5.55;;;3.53;;
12145;SDS011;6136;47.032;15.398;2023-05-03T08:50:21;3.40;;;3.10;;
12145;SDS011;6136;47.032;15.398;2023-05-03T08:52:51;2.75;;;2.47;;
12145;SDS011;6136;47.032;15.398;2023-05-03T08:55:19;2.80;;;2.60;;
12145;SDS011;6136;47.032;15.398;2023-05-03T08:57:47;3.45;;;2.97;;
12145;SDS011;6136;47.032;15.398;2023-05-03T09:00:16;3.00;;;2.70;;
12145;SDS011;6136;47.032;15.398;2023-05-03T09:02:44;4.28;;;3.05;;
12145;SDS011;6136;47.032;15.398;2023-05-03T09:05:33;2.80;;;2.60;;
12145;SDS011;6136;47.032;15.398;2023-05-03T09:08:05;3.13;;;2.83;;
12145;SDS011;6136;47.032;15.398;2023-05-03T09:10:36;3.38;;;3.08;;
12145;SDS011;6136;47.032;15.398;2023-05-03T09:13:06;3.17;;;2.85;;
12145;SDS011;6136;47.032;15.398;2023-05-03T09:15:35;2.92;;;2.72;;
12145;SDS011;6136;47.032;15.398;2023-05-03T09:18:12;2.53;;;2.30;;
12145;SDS011;6136;47.032;15.398;2023-05-03T09:20:44;3.63;;;2.65;;
12145;SDS011;6136;47.032;15.398;2023-05-03T09:23:18;3.40;;;2.80;;
12145;SDS011;6136;47.032;15.398;2023-05-03T09:25:57;3.10;;;2.80;;
12145;SDS011;6136;47.032;15.398;2023-05-03T09:28:26;3.03;;;2.75;;
12145;SDS011;6136;47.032;15.398;2023-05-03T09:31:02;2.80;;;2.50;;
12145;SDS011;6136;47.032;15.398;2023-05-03T09:33:34;3.30;;;2.92;;
12145;SDS011;6136;47.032;15.398;2023-05-03T09:36:03;4.93;;;2.78;;
12145;SDS011;6136;47.032;15.398;2023-05-03T09:38:32;3.05;;;2.83;;
12145;SDS011;6136;47.032;15.398;2023-05-03T09:41:02;3.03;;;2.60;;
12145;SDS011;6136;47.032;15.398;2023-05-03T09:43:31;3.67;;;2.97;;
12145;SDS011;6136;47.032;15.398;2023-05-03T09:46:07;4.28;;;3.30;;
12145;SDS011;6136;47.032;15.398;2023-05-03T09:48:38;3.65;;;3.00;;
12145;SDS011;6136;47.032;15.398;2023-05-03T09:51:07;3.22;;;2.92;;
12145;SDS011;6136;47.032;15.398;2023-05-03T09:53:37;3.55;;;2.97;;
12145;SDS011;6136;47.032;15.398;2023-05-03T09:56:07;3.05;;;2.78;;
12145;SDS011;6136;47.032;15.398;2023-05-03T09:58:39;3.20;;;2.80;;
12145;SDS011;6136;47.032;15.398;2023-05-03T10:01:07;3.15;;;2.95;;
12145;SDS011;6136;47.032;15.398;2023-05-03T10:03:38;4.32;;;3.05;;
12145;SDS011;6136;47.032;15.398;2023-05-03T10:06:12;4.22;;;2.92;;
12145;SDS011;6136;47.032;15.398;2023-05-03T10:08:51;3.95;;;3.55;;
12145;SDS011;6136;47.032;15.398;2023-05-03T10:11:20;2.88;;;2.67;;
12145;SDS011;6136;47.032;15.398;2023-05-03T10:13:50;3.08;;;2.78;;
12145;SDS011;6136;47.032;15.398;2023-05-03T10:16:20;3.33;;;2.78;;
12145;SDS011;6136;47.032;15.398;2023-05-03T10:18:55;3.30;;;3.00;;
12145;SDS011;6136;47.032;15.398;2023-05-03T10:21:32;3.28;;;2.95;;
12145;SDS011;6136;47.032;15.398;2023-05-03T10:24:15;2.97;;;2.78;;
12145;SDS011;6136;47.032;15.398;2023-05-03T10:26:44;3.05;;;2.75;;
12145;SDS011;6136;47.032;15.398;2023-05-03T10:32:26;2.72;;;2.53;;
12145;SDS011;6136;47.032;15.398;2023-05-03T10:34:57;4.03;;;3.63;;
12145;SDS011;6136;47.032;15.398;2023-05-03T10:37:29;3.20;;;3.00;;
12145;SDS011;6136;47.032;15.398;2023-05-03T10:40:06;4.43;;;3.40;;
12145;SDS011;6136;47.032;15.398;2023-05-03T10:42:37;5.05;;;2.60;;
12145;SDS011;6136;47.032;15.398;2023-05-03T10:45:08;3.50;;;3.20;;
12145;SDS011;6136;47.032;15.398;2023-05-03T10:50:52;4.90;;;3.55;;
12145;SDS011;6136;47.032;15.398;2023-05-03T10:53:34;2.80;;;2.60;;
12145;SDS011;6136;47.032;15.398;2023-05-03T10:56:04;3.40;;;2.88;;
12145;SDS011;6136;47.032;15.398;2023-05-03T10:58:35;3.05;;;2.83;;
12145;SDS011;6136;47.032;15.398;2023-05-03T11:01:04;2.78;;;2.58;;
12145;SDS011;6136;47.032;15.398;2023-05-03T11:03:36;3.65;;;3.35;;
12145;SDS011;6136;47.032;15.398;2023-05-03T11:09:06;3.53;;;3.22;;
12145;SDS011;6136;47.032;15.398;2023-05-03T11:11:38;4.68;;;3.20;;
12145;SDS011;6136;47.032;15.398;2023-05-03T11:14:07;4.03;;;3.03;;
12145;SDS011;6136;47.032;15.398;2023-05-03T11:16:37;3.33;;;3.03;;
12145;SDS011;6136;47.032;15.398;2023-05-03T11:19:13;3.25;;;2.95;;
12145;SDS011;6136;47.032;15.398;2023-05-03T11:21:42;3.45;;;3.15;;
12145;SDS011;6136;47.032;15.398;2023-05-03T11:24:15;4.03;;;3.45;;
12145;SDS011;6136;47.032;15.398;2023-05-03T11:26:43;3.78;;;3.47;;
12145;SDS011;6136;47.032;15.398;2023-05-03T11:29:13;4.25;;;3.92;;
12145;SDS011;6136;47.032;15.398;2023-05-03T11:31:42;4.32;;;3.90;;
12145;SDS011;6136;47.032;15.398;2023-05-03T11:34:11;6.43;;;4.47;;
12145;SDS011;6136;47.032;15.398;2023-05-03T11:36:41;5.63;;;5.03;;
12145;SDS011;6136;47.032;15.398;2023-05-03T11:39:10;6.13;;;4.82;;
12145;SDS011;6136;47.032;15.398;2023-05-03T11:41:40;5.70;;;5.20;;
12145;SDS011;6136;47.032;15.398;2023-05-03T11:44:08;6.33;;;5.53;;
12145;SDS011;6136;47.032;15.398;2023-05-03T11:46:43;5.53;;;5.03;;
12145;SDS011;6136;47.032;15.398;2023-05-03T11:49:16;6.73;;;5.50;;
12145;SDS011;6136;47.032;15.398;2023-05-03T11:51:45;7.10;;;5.00;;
12145;SDS011;6136;47.032;15.398;2023-05-03T11:54:20;8.10;;;5.70;;
12145;SDS011;6136;47.032;15.398;2023-05-03T11:56:55;6.23;;;5.60;;
12145;SDS011;6136;47.032;15.398;2023-05-03T11:59:35;5.70;;;5.17;;
12145;SDS011;6136;47.032;15.398;2023-05-03T12:02:05;7.37;;;5.97;;
12145;SDS011;6136;47.032;15.398;2023-05-03T12:04:35;5.97;;;5.17;;
12145;SDS011;6136;47.032;15.398;2023-05-03T12:07:07;6.40;;;5.27;;
12145;SDS011;6136;47.032;15.398;2023-05-03T12:09:38;6.17;;;5.57;;
12145;SDS011;6136;47.032;15.398;2023-05-03T12:12:18;5.87;;;5.37;;
12145;SDS011;6136;47.032;15.398;2023-05-03T12:14:56;10.57;;;5.90;;
12145;SDS011;6136;47.032;15.398;2023-05-03T12:17:38;9.03;;;6.17;;
12145;SDS011;6136;47.032;15.398;2023-05-03T12:20:14;17.60;;;7.53;;
12145;SDS011;6136;47.032;15.398;2023-05-03T12:23:03;7.40;;;6.40;;
12145;SDS011;6136;47.032;15.398;2023-05-03T12:25:36;8.40;;;5.83;;
12145;SDS011;6136;47.032;15.398;2023-05-03T12:28:10;7.50;;;5.77;;
12145;SDS011;6136;47.032;15.398;2023-05-03T12:30:46;6.17;;;5.40;;
12145;SDS011;6136;47.032;15.398;2023-05-03T12:33:15;6.67;;;5.90;;
12145;SDS011;6136;47.032;15.398;2023-05-03T12:35:48;5.53;;;4.83;;
12145;SDS011;6136;47.032;15.398;2023-05-03T12:38:19;8.13;;;5.33;;
12145;SDS011;6136;47.032;15.398;2023-05-03T12:40:50;6.30;;;4.33;;
12145;SDS011;6136;47.032;15.398;2023-05-03T12:43:22;7.60;;;5.43;;
12145;SDS011;6136;47.032;15.398;2023-05-03T12:45:51;5.93;;;4.37;;
12145;SDS011;6136;47.032;15.398;2023-05-03T12:48:39;7.27;;;5.07;;
12145;SDS011;6136;47.032;15.398;2023-05-03T12:51:12;11.67;;;5.27;;
12145;SDS011;6136;47.032;15.398;2023-05-03T12:53:45;5.50;;;4.90;;
12145;SDS011;6136;47.032;15.398;2023-05-03T12:56:20;6.23;;;5.17;;
12145;SDS011;6136;47.032;15.398;2023-05-03T12:58:52;6.20;;;5.43;;
12145;SDS011;6136;47.032;15.398;2023-05-03T13:01:24;6.40;;;5.50;;
12145;SDS011;6136;47.032;15.398;2023-05-03T13:03:55;6.60;;;5.83;;
12145;SDS011;6136;47.032;15.398;2023-05-03T13:06:43;7.30;;;6.40;;
12145;SDS011;6136;47.032;15.398;2023-05-03T13:09:13;7.77;;;5.67;;
12145;SDS011;6136;47.032;15.398;2023-05-03T13:11:49;9.70;;;6.07;;
12145;SDS011;6136;47.032;15.398;2023-05-03T13:14:20;7.50;;;6.33;;
12145;SDS011;6136;47.032;15.398;2023-05-03T13:16:48;6.87;;;5.87;;
12145;SDS011;6136;47.032;15.398;2023-05-03T13:19:17;7.80;;;6.37;;
12145;SDS011;6136;47.032;15.398;2023-05-03T13:21:46;7.40;;;6.40;;
12145;SDS011;6136;47.032;15.398;2023-05-03T13:24:15;8.17;;;6.67;;
12145;SDS011;6136;47.032;15.398;2023-05-03T13:26:43;6.90;;;6.20;;
12145;SDS011;6136;47.032;15.398;2023-05-03T13:29:11;8.30;;;7.30;;
12145;SDS011;6136;47.032;15.398;2023-05-03T13:31:41;8.33;;;6.90;;
12145;SDS011;6136;47.032;15.398;2023-05-03T13:34:09;7.47;;;6.37;;
12145;SDS011;6136;47.032;15.398;2023-05-03T13:36:37;7.80;;;7.00;;
12145;SDS011;6136;47.032;15.398;2023-05-03T13:39:06;7.87;;;6.53;;
12145;SDS011;6136;47.032;15.398;2023-05-03T13:41:37;7.50;;;6.70;;
12145;SDS011;6136;47.032;15.398;2023-05-03T13:44:06;6.93;;;6.23;;
12145;SDS011;6136;47.032;15.398;2023-05-03T13:46:35;8.47;;;6.53;;
12145;SDS011;6136;47.032;15.398;2023-05-03T13:49:05;10.77;;;7.10;;
12145;SDS011;6136;47.032;15.398;2023-05-03T13:51:34;7.57;;;6.53;;
12145;SDS011;6136;47.032;15.398;2023-05-03T13:54:04;8.03;;;7.00;;
12145;SDS011;6136;47.032;15.398;2023-05-03T13:56:33;8.87;;;7.77;;
12145;SDS011;6136;47.032;15.398;2023-05-03T13:59:02;8.53;;;7.30;;
12145;SDS011;6136;47.032;15.398;2023-05-03T14:01:30;7.53;;;6.77;;
12145;SDS011;6136;47.032;15.398;2023-05-03T14:03:59;6.67;;;5.97;;
12145;SDS011;6136;47.032;15.398;2023-05-03T14:06:29;7.33;;;6.63;;
12145;SDS011;6136;47.032;15.398;2023-05-03T14:08:59;8.33;;;6.67;;
12145;SDS011;6136;47.032;15.398;2023-05-03T14:11:28;9.47;;;7.20;;
12145;SDS011;6136;47.032;15.398;2023-05-03T14:13:56;9.33;;;6.93;;
12145;SDS011;6136;47.032;15.398;2023-05-03T14:16:25;7.73;;;6.73;;
12145;SDS011;6136;47.032;15.398;2023-05-03T14:18:57;8.10;;;6.63;;
12145;SDS011;6136;47.032;15.398;2023-05-03T14:21:25;8.93;;;6.60;;
12145;SDS011;6136;47.032;15.398;2023-05-03T14:23:56;8.17;;;6.70;;
12145;SDS011;6136;47.032;15.398;2023-05-03T14:26:24;7.33;;;6.50;;
12145;SDS011;6136;47.032;15.398;2023-05-03T14:28:55;7.30;;;6.60;;
12145;SDS011;6136;47.032;15.398;2023-05-03T14:31:23;10.10;;;6.97;;
12145;SDS011;6136;47.032;15.398;2023-05-03T14:33:51;10.30;;;7.13;;
12145;SDS011;6136;47.032;15.398;2023-05-03T14:36:20;10.67;;;7.63;;
12145;SDS011;6136;47.032;15.398;2023-05-03T14:38:49;8.30;;;7.17;;
12145;SDS011;6136;47.032;15.398;2023-05-03T14:41:18;10.40;;;7.57;;
12145;SDS011;6136;47.032;15.398;2023-05-03T14:43:47;7.63;;;6.67;;
12145;SDS011;6136;47.032;15.398;2023-05-03T14:46:15;9.47;;;7.70;;
12145;SDS011;6136;47.032;15.398;2023-05-03T14:48:44;9.93;;;7.13;;
12145;SDS011;6136;47.032;15.398;2023-05-03T14:51:12;9.77;;;7.20;;
12145;SDS011;6136;47.032;15.398;2023-05-03T14:53:40;12.33;;;7.73;;
12145;SDS011;6136;47.032;15.398;2023-05-03T14:56:09;8.93;;;7.03;;
12145;SDS011;6136;47.032;15.398;2023-05-03T14:58:38;10.17;;;7.67;;
12145;SDS011;6136;47.032;15.398;2023-05-03T15:01:06;9.37;;;7.13;;
12145;SDS011;6136;47.032;15.398;2023-05-03T15:03:35;12.27;;;8.13;;
12145;SDS011;6136;47.032;15.398;2023-05-03T15:06:03;8.83;;;7.70;;
12145;SDS011;6136;47.032;15.398;2023-05-03T15:08:32;10.33;;;7.47;;
12145;SDS011;6136;47.032;15.398;2023-05-03T15:11:00;9.33;;;7.63;;
12145;SDS011;6136;47.032;15.398;2023-05-03T15:13:28;12.23;;;7.80;;
12145;SDS011;6136;47.032;15.398;2023-05-03T15:15:58;9.77;;;7.83;;